createdAt,value
2018-09-22T00:02:05.150Z,12.30
2018-09-22T00:04:34.804Z,14.00
2018-09-22T00:07:04.647Z,13.30
2018-09-22T00:09:34.472Z,13.53
2018-09-22T00:12:04.478Z,12.70
2018-09-22T00:14:34.210Z,13.77
2018-09-22T00:17:04.357Z,12.97
2018-09-22T00:19:34.208Z,14.37
2018-09-22T00:22:04.010Z,12.00
2018-09-22T00:24:33.664Z,12.87
2018-09-22T00:27:03.355Z,12.57
2018-09-22T00:29:33.138Z,12.53
2018-09-22T00:32:02.889Z,12.60
2018-09-22T00:34:32.503Z,12.03
2018-09-22T00:37:02.204Z,11.97
2018-09-22T00:39:31.874Z,12.37
2018-09-22T00:42:02.448Z,11.13
2018-09-22T00:44:32.169Z,11.13
2018-09-22T00:47:01.704Z,11.00
2018-09-22T00:49:31.199Z,11.20
2018-09-22T00:52:00.883Z,10.83
2018-09-22T00:54:30.504Z,10.90
2018-09-22T00:57:00.106Z,10.57
2018-09-22T00:59:29.690Z,12.67
2018-09-22T01:01:59.178Z,11.00
2018-09-22T01:04:28.820Z,11.50
2018-09-22T01:06:58.440Z,11.10
2018-09-22T01:09:28.210Z,10.57
2018-09-22T01:11:57.774Z,10.93
2018-09-22T01:14:27.506Z,10.63
2018-09-22T01:16:57.165Z,10.53
2018-09-22T01:19:26.826Z,10.57
2018-09-22T01:21:56.492Z,10.60
2018-09-22T01:24:26.103Z,10.67
2018-09-22T01:26:55.820Z,10.33
2018-09-22T01:29:25.396Z,10.87
2018-09-22T01:31:55.016Z,10.90
2018-09-22T01:34:24.624Z,11.03
2018-09-22T01:36:54.242Z,11.33
2018-09-22T01:39:23.812Z,11.00
2018-09-22T01:41:53.443Z,11.30
2018-09-22T01:44:23.079Z,10.33
2018-09-22T01:46:52.600Z,10.33
2018-09-22T01:49:22.132Z,10.43
2018-09-22T01:51:51.720Z,10.20
2018-09-22T01:54:21.396Z,10.00
2018-09-22T01:56:51.003Z,11.43
2018-09-22T01:59:20.658Z,10.57
2018-09-22T02:01:50.174Z,10.93
2018-09-22T02:04:19.725Z,10.80
2018-09-22T02:06:49.382Z,11.30
2018-09-22T02:09:18.888Z,10.87
2018-09-22T02:11:48.484Z,10.93
2018-09-22T02:14:18.179Z,10.50
2018-09-22T02:16:47.742Z,11.90
2018-09-22T02:19:17.402Z,9.57
2018-09-22T02:21:47.169Z,8.83
2018-09-22T02:24:16.725Z,10.17
2018-09-22T02:26:46.285Z,10.47
2018-09-22T02:29:15.888Z,10.80
2018-09-22T02:31:45.454Z,10.47
2018-09-22T02:34:15.277Z,11.10
2018-09-22T02:36:44.888Z,10.03
2018-09-22T02:39:14.322Z,10.27
2018-09-22T02:41:44.061Z,10.50
2018-09-22T02:44:13.797Z,10.73
2018-09-22T02:51:35.861Z,11.53
2018-09-22T02:54:05.476Z,12.07
2018-09-22T02:56:35.149Z,11.47
2018-09-22T02:59:04.872Z,11.07
2018-09-22T03:01:34.544Z,12.20
2018-09-22T03:04:04.290Z,12.30
2018-09-22T03:06:34.036Z,11.53
2018-09-22T03:09:03.861Z,12.07
2018-09-22T03:11:33.565Z,14.03
2018-09-22T03:14:03.226Z,14.67
2018-09-22T03:16:32.849Z,13.80
2018-09-22T03:19:02.606Z,13.10
2018-09-22T03:21:32.074Z,14.53
2018-09-22T03:24:02.853Z,13.87
2018-09-22T03:26:32.464Z,13.17
2018-09-22T03:29:02.095Z,14.23
2018-09-22T03:31:31.673Z,13.47
2018-09-22T03:34:01.266Z,12.97
2018-09-22T03:36:30.912Z,13.07
2018-09-22T03:39:00.502Z,14.40
2018-09-22T03:41:30.249Z,12.47
2018-09-22T03:43:59.805Z,12.60
2018-09-22T03:46:29.460Z,11.83
2018-09-22T03:48:59.229Z,12.00
2018-09-22T03:51:28.821Z,12.10
2018-09-22T03:53:58.354Z,11.80
2018-09-22T03:56:28.025Z,12.07
2018-09-22T03:58:57.686Z,14.10
2018-09-22T04:01:27.266Z,11.93
2018-09-22T04:03:57.027Z,12.23
2018-09-22T04:06:26.692Z,12.83
2018-09-22T04:08:56.374Z,12.30
2018-09-22T04:11:26.195Z,12.70
2018-09-22T04:13:55.811Z,12.77
2018-09-22T04:16:25.309Z,12.03
2018-09-22T04:18:54.906Z,11.83
2018-09-22T04:21:24.636Z,13.13
2018-09-22T04:23:54.276Z,21.47
2018-09-22T04:26:23.924Z,13.77
2018-09-22T04:28:53.670Z,12.47
2018-09-22T04:31:23.320Z,12.47
2018-09-22T04:33:53.314Z,12.67
2018-09-22T04:36:22.983Z,12.57
2018-09-22T04:38:52.589Z,14.90
2018-09-22T04:41:22.299Z,11.40
2018-09-22T04:43:51.931Z,11.63
2018-09-22T04:46:21.656Z,12.67
2018-09-22T04:48:51.273Z,12.27
2018-09-22T04:51:21.285Z,11.40
2018-09-22T04:53:50.858Z,10.97
2018-09-22T04:56:20.376Z,11.57
2018-09-22T04:58:50.040Z,10.70
2018-09-22T05:01:19.679Z,13.80
2018-09-22T05:03:49.444Z,12.40
2018-09-22T05:06:18.980Z,20.60
2018-09-22T05:08:48.671Z,27.27
2018-09-22T05:11:18.318Z,10.70
2018-09-22T05:13:47.848Z,11.47
2018-09-22T05:16:17.562Z,11.40
2018-09-22T05:18:47.326Z,9.80
2018-09-22T05:21:16.896Z,11.40
2018-09-22T05:23:46.501Z,10.13
2018-09-22T05:26:16.129Z,10.17
2018-09-22T05:28:45.795Z,10.33
2018-09-22T05:31:15.438Z,9.70
2018-09-22T05:33:45.046Z,10.40
2018-09-22T05:36:14.762Z,11.80
2018-09-22T05:38:44.341Z,13.47
2018-09-22T05:41:14.080Z,10.47
2018-09-22T05:43:43.800Z,12.60
2018-09-22T05:46:14.144Z,13.03
2018-09-22T05:48:43.689Z,13.93
2018-09-22T05:51:13.316Z,11.47
2018-09-22T05:53:43.052Z,12.40
2018-09-22T05:56:12.639Z,12.87
2018-09-22T05:58:42.375Z,11.10
2018-09-22T06:01:11.989Z,11.30
2018-09-22T06:03:42.580Z,12.73
2018-09-22T06:06:12.296Z,13.43
2018-09-22T06:08:41.963Z,13.03
2018-09-22T06:11:11.558Z,16.03
2018-09-22T06:13:41.257Z,17.37
2018-09-22T06:16:11.044Z,13.10
2018-09-22T06:18:40.705Z,11.83
2018-09-22T06:21:10.370Z,13.77
2018-09-22T06:23:39.939Z,12.57
2018-09-22T06:26:09.468Z,12.63
2018-09-22T06:28:39.060Z,13.27
2018-09-22T06:31:08.567Z,14.60
2018-09-22T06:33:38.120Z,14.67
2018-09-22T06:36:07.977Z,14.57
2018-09-22T06:38:37.619Z,13.67
2018-09-22T06:41:07.335Z,13.20
2018-09-22T06:43:36.912Z,12.97
2018-09-22T06:46:06.523Z,13.73
2018-09-22T06:48:36.218Z,13.50
2018-09-22T06:51:06.079Z,14.27
2018-09-22T06:53:35.942Z,16.23
2018-09-22T06:56:05.688Z,12.23
2018-09-22T06:58:35.608Z,12.40
2018-09-22T07:01:05.148Z,12.27
2018-09-22T07:03:34.781Z,12.73
2018-09-22T07:06:04.445Z,12.40
2018-09-22T07:08:33.960Z,11.77
2018-09-22T07:11:03.574Z,11.87
2018-09-22T07:13:33.437Z,11.87
2018-09-22T07:16:03.021Z,11.97
2018-09-22T07:18:32.764Z,11.27
2018-09-22T07:21:09.423Z,12.93
2018-09-22T07:23:39.131Z,11.47
2018-09-22T07:26:08.691Z,12.90
2018-09-22T07:28:38.319Z,10.90
2018-09-22T07:31:08.078Z,12.30
2018-09-22T07:33:37.574Z,11.80
2018-09-22T07:36:07.134Z,11.27
2018-09-22T07:38:36.762Z,11.40
2018-09-22T07:41:06.219Z,13.13
2018-09-22T07:43:35.527Z,11.83
2018-09-22T07:46:04.899Z,12.30
2018-09-22T07:48:34.292Z,10.00
2018-09-22T07:51:03.651Z,12.60
2018-09-22T07:53:32.967Z,11.37
2018-09-22T07:56:02.503Z,12.07
2018-09-22T07:58:31.924Z,11.67
2018-09-22T08:01:01.425Z,11.20
2018-09-22T08:03:31.226Z,10.47
2018-09-22T08:06:00.600Z,12.20
2018-09-22T08:08:29.922Z,10.93
2018-09-22T08:10:59.304Z,11.97
2018-09-22T08:13:29.140Z,11.00
2018-09-22T08:15:58.619Z,11.77
2018-09-22T08:18:27.979Z,11.73
2018-09-22T08:20:57.436Z,13.77
2018-09-22T08:23:27.172Z,10.60
2018-09-22T08:25:56.685Z,10.37
2018-09-22T08:28:26.375Z,10.77
2018-09-22T08:30:55.978Z,10.80
2018-09-22T08:33:25.771Z,10.03
2018-09-22T08:35:55.500Z,8.73
2018-09-22T08:38:24.971Z,10.10
2018-09-22T08:40:54.696Z,11.03
2018-09-22T08:43:24.268Z,10.83
2018-09-22T08:45:53.990Z,10.87
2018-09-22T08:48:23.620Z,8.97
2018-09-22T08:50:53.316Z,8.70
2018-09-22T08:53:22.964Z,8.50
2018-09-22T08:55:52.386Z,9.60
2018-09-22T08:58:21.922Z,9.93
2018-09-22T09:00:51.314Z,7.80
2018-09-22T09:03:20.835Z,9.67
2018-09-22T09:05:50.299Z,8.93
2018-09-22T09:08:19.998Z,10.27
2018-09-22T09:10:49.757Z,7.30
2018-09-22T09:13:19.309Z,9.93
2018-09-22T09:15:49.011Z,8.40
2018-09-22T09:18:18.650Z,7.40
2018-09-22T09:20:48.193Z,9.83
2018-09-22T09:23:19.455Z,8.60
2018-09-22T09:25:49.171Z,9.20
2018-09-22T09:28:18.884Z,7.97
2018-09-22T09:30:48.489Z,11.13
2018-09-22T09:33:18.253Z,7.30
2018-09-22T09:35:47.934Z,5.97
2018-09-22T09:38:17.600Z,7.00
2018-09-22T09:40:47.250Z,8.93
2018-09-22T09:43:17.009Z,6.27
2018-09-22T09:45:46.615Z,7.43
2018-09-22T09:48:16.213Z,6.43
2018-09-22T09:50:45.828Z,6.63
2018-09-22T09:53:15.644Z,8.37
2018-09-22T09:55:45.219Z,5.97
2018-09-22T09:58:14.926Z,7.90
2018-09-22T10:00:45.734Z,8.60
2018-09-22T10:03:17.000Z,7.90
2018-09-22T10:05:46.791Z,7.03
2018-09-22T10:08:16.874Z,8.43
2018-09-22T10:10:47.121Z,6.50
2018-09-22T10:13:16.667Z,7.00
2018-09-22T10:15:46.268Z,8.00
2018-09-22T10:18:15.643Z,7.40
2018-09-22T10:20:45.027Z,8.07
2018-09-22T10:23:14.396Z,7.93
2018-09-22T10:25:43.826Z,7.83
2018-09-22T10:28:14.173Z,7.97
2018-09-22T10:30:43.834Z,6.43
2018-09-22T10:33:13.096Z,8.03
2018-09-22T10:35:42.450Z,6.50
2018-09-22T10:38:12.173Z,7.17
2018-09-22T10:40:41.782Z,7.17
2018-09-22T10:43:11.204Z,7.20
2018-09-22T10:45:41.302Z,9.07
2018-09-22T10:48:10.871Z,6.33
2018-09-22T10:50:40.220Z,7.00
2018-09-22T10:53:09.885Z,9.83
2018-09-22T10:55:39.503Z,6.80
2018-09-22T10:58:09.125Z,7.47
2018-09-22T11:00:38.693Z,7.77
2018-09-22T11:03:08.372Z,7.80
2018-09-22T11:05:38.044Z,7.10
2018-09-22T11:08:08.463Z,6.53
2018-09-22T11:10:38.060Z,7.57
2018-09-22T11:13:07.461Z,7.13
2018-09-22T11:15:37.177Z,6.93
2018-09-22T11:18:07.008Z,7.40
2018-09-22T11:20:36.639Z,6.93
2018-09-22T11:23:06.248Z,7.17
2018-09-22T11:25:35.646Z,6.90
2018-09-22T11:28:05.294Z,7.13
2018-09-22T11:30:34.850Z,9.20
2018-09-22T11:33:04.657Z,6.87
2018-09-22T11:35:34.359Z,6.63
2018-09-22T11:38:04.149Z,5.50
2018-09-22T11:40:33.538Z,7.30
2018-09-22T11:43:03.225Z,7.00
2018-09-22T11:45:32.811Z,6.57
2018-09-22T11:48:02.263Z,6.63
2018-09-22T11:50:31.846Z,6.43
2018-09-22T11:53:01.219Z,6.87
2018-09-22T11:55:30.973Z,6.70
2018-09-22T11:58:00.279Z,7.53
2018-09-22T12:00:29.654Z,7.27
2018-09-22T12:02:59.227Z,7.40
2018-09-22T12:05:28.870Z,9.17
2018-09-22T12:07:58.428Z,7.03
2018-09-22T12:10:27.975Z,6.10
2018-09-22T12:12:57.554Z,6.37
2018-09-22T12:15:27.232Z,6.40
2018-09-22T12:17:56.568Z,6.73
2018-09-22T12:20:25.925Z,6.53
2018-09-22T12:22:55.587Z,7.03
2018-09-22T12:25:25.235Z,6.60
2018-09-22T12:27:54.639Z,6.73
2018-09-22T12:30:23.993Z,7.10
2018-09-22T12:32:53.691Z,6.60
2018-09-22T12:35:23.559Z,7.07
2018-09-22T12:37:53.422Z,6.90
2018-09-22T12:40:22.768Z,6.10
2018-09-22T12:42:52.435Z,7.27
2018-09-22T12:45:22.102Z,6.60
2018-09-22T12:47:51.722Z,6.97
2018-09-22T12:50:21.372Z,7.53
2018-09-22T12:52:50.929Z,6.70
2018-09-22T12:55:20.610Z,6.93
2018-09-22T12:57:50.036Z,6.03
2018-09-22T13:00:19.496Z,6.00
2018-09-22T13:02:49.863Z,6.77
2018-09-22T13:05:19.423Z,6.37
2018-09-22T13:07:49.122Z,6.47
2018-09-22T13:10:18.780Z,5.97
2018-09-22T13:12:48.375Z,5.83
2018-09-22T13:15:18.009Z,6.23
2018-09-22T13:17:47.302Z,6.23
2018-09-22T13:20:16.956Z,5.50
2018-09-22T13:22:46.555Z,6.03
2018-09-22T13:25:16.219Z,5.90
2018-09-22T13:27:45.956Z,5.40
2018-09-22T13:30:15.592Z,6.90
2018-09-22T13:32:45.273Z,6.30
2018-09-22T13:35:14.843Z,6.47
2018-09-22T13:37:44.505Z,6.27
2018-09-22T13:40:14.080Z,5.97
2018-09-22T13:42:43.609Z,6.93
2018-09-22T13:45:13.119Z,6.33
2018-09-22T13:47:42.789Z,6.40
2018-09-22T13:50:12.066Z,6.77
2018-09-22T13:52:41.508Z,7.07
2018-09-22T13:55:11.148Z,6.60
2018-09-22T13:57:40.739Z,7.07
2018-09-22T14:00:10.476Z,6.10
2018-09-22T14:02:39.790Z,8.30
2018-09-22T14:05:09.470Z,7.00
2018-09-22T14:07:39.107Z,7.00
2018-09-22T14:10:08.912Z,7.10
2018-09-22T14:12:38.211Z,6.50
2018-09-22T14:15:07.527Z,7.80
2018-09-22T14:17:36.812Z,9.47
2018-09-22T14:20:06.304Z,10.30
2018-09-22T14:22:35.980Z,11.13
2018-09-22T14:25:05.575Z,7.43
2018-09-22T14:27:34.971Z,7.60
2018-09-22T14:30:04.342Z,6.90
2018-09-22T14:32:33.619Z,6.60
2018-09-22T14:35:03.005Z,6.63
2018-09-22T14:37:32.602Z,6.73
2018-09-22T14:40:02.184Z,6.33
2018-09-22T14:42:31.593Z,7.97
2018-09-22T14:45:00.849Z,8.03
2018-09-22T14:47:30.404Z,7.20
2018-09-22T14:50:00.156Z,6.73
2018-09-22T14:52:29.719Z,6.67
2018-09-22T14:54:59.021Z,7.30
2018-09-22T14:57:28.763Z,6.87
2018-09-22T14:59:58.222Z,6.60
2018-09-22T15:02:27.914Z,7.37
2018-09-22T15:04:57.442Z,7.07
2018-09-22T15:07:27.053Z,7.53
2018-09-22T15:09:56.619Z,6.43
2018-09-22T15:12:26.118Z,6.90
2018-09-22T15:14:55.890Z,7.27
2018-09-22T15:17:25.409Z,6.73
2018-09-22T15:19:54.759Z,7.53
2018-09-22T15:22:24.336Z,6.63
2018-09-22T15:24:54.019Z,7.10
2018-09-22T15:27:23.602Z,6.73
2018-09-22T15:29:53.159Z,7.50
2018-09-22T15:32:22.730Z,6.70
2018-09-22T15:34:51.980Z,7.47
2018-09-22T15:37:22.432Z,7.03
2018-09-22T15:39:51.996Z,7.53
2018-09-22T15:42:21.640Z,8.23
2018-09-22T15:44:51.022Z,8.87
2018-09-22T15:47:20.348Z,8.90
2018-09-22T15:49:49.628Z,9.30
2018-09-22T15:52:19.316Z,8.93
2018-09-22T15:54:48.966Z,9.37
2018-09-22T15:57:18.279Z,9.37
2018-09-22T15:59:47.647Z,10.17
2018-09-22T16:02:17.876Z,13.13
2018-09-22T16:04:47.529Z,11.83
2018-09-22T16:07:18.042Z,11.47
2018-09-22T16:09:47.797Z,9.47
2018-09-22T16:12:18.596Z,9.23
2018-09-22T16:14:49.523Z,10.20
2018-09-22T16:17:19.084Z,10.53
2018-09-22T16:19:48.596Z,10.73
2018-09-22T16:22:18.591Z,9.93
2018-09-22T16:24:48.104Z,9.93
2018-09-22T16:27:17.484Z,14.53
2018-09-22T16:29:46.696Z,17.67
2018-09-22T16:32:15.962Z,14.70
2018-09-22T16:34:45.343Z,12.43
2018-09-22T16:37:15.072Z,10.57
2018-09-22T16:39:44.534Z,10.43
2018-09-22T16:42:13.860Z,9.83
2018-09-22T16:44:43.116Z,11.03
2018-09-22T16:47:12.657Z,10.37
2018-09-22T16:49:41.857Z,11.13
2018-09-22T16:52:12.471Z,11.20
2018-09-22T16:54:42.814Z,10.77
2018-09-22T16:57:12.494Z,11.20
2018-09-22T16:59:42.118Z,11.03
2018-09-22T17:02:11.728Z,10.57
2018-09-22T17:04:41.401Z,11.47
2018-09-22T17:07:11.996Z,12.60
2018-09-22T17:09:41.310Z,11.47
2018-09-22T17:12:10.747Z,11.53
2018-09-22T17:14:40.411Z,12.13
2018-09-22T17:17:09.796Z,13.97
2018-09-22T17:19:39.101Z,13.90
2018-09-22T17:22:08.446Z,13.60
2018-09-22T17:24:37.898Z,14.70
2018-09-22T17:27:07.506Z,14.77
2018-09-22T17:29:37.083Z,12.97
2018-09-22T17:32:07.056Z,12.77
2018-09-22T17:34:36.411Z,13.40
2018-09-22T17:37:05.787Z,11.53
2018-09-22T17:39:35.037Z,11.97
2018-09-22T17:42:04.646Z,12.27
2018-09-22T17:44:34.081Z,13.47
2018-09-22T17:47:03.298Z,12.20
2018-09-22T17:49:32.741Z,12.20
2018-09-22T17:52:02.064Z,12.60
2018-09-22T17:54:31.325Z,13.17
2018-09-22T17:57:01.000Z,11.90
2018-09-22T17:59:31.320Z,12.27
2018-09-22T18:02:01.121Z,12.30
2018-09-22T18:04:30.428Z,12.23
2018-09-22T18:06:59.875Z,13.20
2018-09-22T18:09:29.430Z,14.10
2018-09-22T18:11:58.923Z,13.97
2018-09-22T18:14:28.368Z,13.33
2018-09-22T18:16:57.696Z,13.17
2018-09-22T18:19:26.990Z,11.50
2018-09-22T18:21:56.592Z,12.37
2018-09-22T18:24:25.911Z,12.50
2018-09-22T18:26:55.447Z,11.60
2018-09-22T18:29:24.939Z,12.63
2018-09-22T18:31:54.371Z,13.40
2018-09-22T18:34:23.975Z,11.97
2018-09-22T18:36:53.271Z,12.13
2018-09-22T18:39:22.577Z,12.20
2018-09-22T18:41:51.892Z,13.27
2018-09-22T18:44:21.166Z,12.10
2018-09-22T18:46:50.447Z,12.73
2018-09-22T18:49:19.982Z,13.53
2018-09-22T18:51:49.317Z,12.17
2018-09-22T18:54:18.778Z,13.27
2018-09-22T18:56:48.153Z,12.73
2018-09-22T18:59:17.642Z,12.03
2018-09-22T19:01:47.166Z,12.63
2018-09-22T19:04:16.805Z,12.87
2018-09-22T19:06:46.081Z,13.63
2018-09-22T19:09:15.479Z,12.83
2018-09-22T19:11:44.784Z,11.63
2018-09-22T19:14:22.392Z,14.20
2018-09-22T19:16:55.962Z,14.63
2018-09-22T19:19:31.485Z,12.03
2018-09-22T19:22:04.697Z,17.57
2018-09-22T19:24:53.451Z,10.53
2018-09-22T19:27:27.914Z,11.90
2018-09-22T19:30:02.567Z,10.57
2018-09-22T19:32:36.732Z,10.77
2018-09-22T19:35:12.228Z,9.57
2018-09-22T19:37:44.580Z,15.07
2018-09-22T19:40:17.406Z,10.67
2018-09-22T19:42:51.895Z,12.67
2018-09-22T19:45:28.136Z,12.53
2018-09-22T19:48:04.217Z,14.23
2018-09-22T19:55:36.085Z,14.93
2018-09-22T19:58:05.475Z,15.47
2018-09-22T20:00:34.909Z,14.70
2018-09-22T20:03:04.556Z,13.40
2018-09-22T20:05:34.168Z,15.43
2018-09-22T20:08:03.695Z,17.10
2018-09-22T20:10:33.177Z,17.60
2018-09-22T20:13:02.569Z,14.10
2018-09-22T20:15:32.190Z,18.47
2018-09-22T20:18:01.780Z,14.37
2018-09-22T20:20:31.420Z,17.40
2018-09-22T20:23:00.895Z,16.40
2018-09-22T20:25:30.446Z,14.83
2018-09-22T20:27:59.860Z,15.23
2018-09-22T20:30:29.524Z,15.17
2018-09-22T20:32:59.528Z,16.83
2018-09-22T20:35:29.176Z,16.80
2018-09-22T20:37:58.778Z,16.60
2018-09-22T20:40:28.426Z,17.53
2018-09-22T20:42:57.917Z,21.43
2018-09-22T20:45:27.499Z,17.17
2018-09-22T20:47:56.932Z,18.30
2018-09-22T20:50:26.396Z,17.13
2018-09-22T20:52:55.862Z,19.20
2018-09-22T20:55:25.252Z,20.23
2018-09-22T20:57:55.037Z,20.13
2018-09-22T21:00:24.615Z,18.60
2018-09-22T21:02:54.287Z,17.57
2018-09-22T21:05:23.816Z,19.53
2018-09-22T21:07:53.572Z,22.97
2018-09-22T21:10:23.123Z,22.27
2018-09-22T21:12:52.592Z,22.43
2018-09-22T21:15:22.134Z,21.77
2018-09-22T21:17:51.748Z,17.90
2018-09-22T21:20:21.323Z,21.60
2018-09-22T21:22:50.943Z,18.93
2018-09-22T21:25:20.583Z,20.67
2018-09-22T21:27:50.090Z,26.27
2018-09-22T21:30:19.638Z,17.77
2018-09-22T21:32:49.227Z,16.27
2018-09-22T21:35:18.772Z,20.27
2018-09-22T21:37:48.332Z,21.93
2018-09-22T21:40:17.917Z,20.57
2018-09-22T21:42:47.463Z,20.37
2018-09-22T21:45:16.952Z,19.70
2018-09-22T21:47:46.765Z,19.57
2018-09-22T21:50:16.334Z,19.07
2018-09-22T21:52:45.880Z,19.17
2018-09-22T21:55:15.412Z,21.33
2018-09-22T21:57:44.956Z,20.80
2018-09-22T22:00:14.345Z,18.87
2018-09-22T22:02:44.002Z,19.70
2018-09-22T22:05:13.538Z,20.67
2018-09-22T22:07:43.195Z,21.37
2018-09-22T22:10:12.813Z,22.23
2018-09-22T22:12:42.529Z,21.80
2018-09-22T22:15:12.058Z,20.07
2018-09-22T22:17:41.623Z,23.00
2018-09-22T22:20:11.146Z,21.10
2018-09-22T22:22:40.706Z,20.93
2018-09-22T22:25:11.091Z,20.20
2018-09-22T22:27:40.622Z,20.77
2018-09-22T22:30:11.512Z,20.67
2018-09-22T22:32:40.968Z,19.23
2018-09-22T22:35:10.743Z,17.90
2018-09-22T22:37:40.205Z,17.83
2018-09-22T22:40:09.813Z,17.63
2018-09-22T22:42:39.534Z,18.53
2018-09-22T22:45:09.511Z,20.00
2018-09-22T22:47:38.955Z,17.03
2018-09-22T22:50:08.018Z,16.57
2018-09-22T22:52:37.475Z,18.30
2018-09-22T22:55:07.220Z,17.17
2018-09-22T22:57:36.784Z,17.23
2018-09-22T23:00:07.756Z,17.90
2018-09-22T23:02:37.405Z,17.23
2018-09-22T23:05:07.243Z,16.97
2018-09-22T23:07:36.923Z,17.33
2018-09-22T23:10:06.560Z,17.60
2018-09-22T23:12:36.262Z,18.03
2018-09-22T23:15:06.031Z,18.33
2018-09-22T23:17:36.592Z,18.53
2018-09-22T23:20:06.315Z,18.73
2018-09-22T23:22:36.836Z,18.20
2018-09-22T23:25:06.414Z,16.23
2018-09-22T23:27:36.003Z,16.07
2018-09-22T23:30:05.845Z,17.23
2018-09-22T23:32:35.403Z,17.17
2018-09-22T23:35:04.971Z,17.77
2018-09-22T23:37:34.615Z,18.63
2018-09-22T23:40:04.739Z,18.20
2018-09-22T23:42:34.394Z,18.77
2018-09-22T23:45:04.007Z,18.50
2018-09-22T23:47:33.518Z,19.53
2018-09-22T23:50:02.931Z,19.90
2018-09-22T23:52:33.178Z,19.50
2018-09-22T23:55:02.691Z,19.50
2018-09-22T23:57:32.452Z,20.17
